Time;durP1;ratioP1;P1;durP2;ratioP2;P2;SDS_P1;SDS_P2;PMS_P1;PMS_P2;Temp;Humidity;BMP_temperature;BMP_pressure;BME280_temperature;BME280_humidity;BME280_pressure;Samples;Min_cycle;Max_cycle;Signal;HPM_P1;HPM_P2
2023/09/17 00:00:45;;;;;;;24.80;22.25;;;13.10;99.90;;;;;;5022256;28;20085;-68
2023/09/17 00:03:11;;;;;;;22.63;19.73;;;13.10;99.90;;;;;;5049102;28;20099;-68
2023/09/17 00:05:37;;;;;;;22.40;20.10;;;13.00;99.90;;;;;;5051241;28;20139;-68
2023/09/17 00:08:03;;;;;;;25.27;22.58;;;13.00;99.90;;;;;;5054485;28;20047;-68
2023/09/17 00:10:30;;;;;;;23.35;20.85;;;13.10;99.90;;;;;;5046437;28;20091;-68
2023/09/17 00:12:56;;;;;;;26.05;22.63;;;13.00;99.90;;;;;;5054816;28;20052;-68
2023/09/17 00:15:23;;;;;;;26.33;23.52;;;13.00;99.90;;;;;;5054227;28;20528;-68
2023/09/17 00:17:49;;;;;;;28.58;25.17;;;13.00;99.90;;;;;;5053284;28;20049;-68
2023/09/17 00:20:15;;;;;;;24.95;20.33;;;12.90;99.90;;;;;;5055441;28;20041;-68
2023/09/17 00:22:41;;;;;;;20.73;18.52;;;13.00;99.90;;;;;;5054016;28;20044;-68
2023/09/17 00:25:07;;;;;;;21.70;18.70;;;12.90;99.90;;;;;;5053168;28;20037;-68
2023/09/17 00:27:33;;;;;;;21.63;18.58;;;12.90;99.90;;;;;;5055383;28;20033;-68
2023/09/17 00:29:59;;;;;;;26.77;17.98;;;12.90;99.90;;;;;;5054675;28;20033;-68
2023/09/17 00:32:25;;;;;;;20.23;18.13;;;12.90;99.90;;;;;;5037561;28;20392;-68
2023/09/17 00:34:51;;;;;;;19.00;16.00;;;12.90;99.90;;;;;;5037499;28;20118;-68
2023/09/17 00:37:17;;;;;;;18.13;16.20;;;12.90;99.90;;;;;;5053990;28;20549;-68
2023/09/17 00:39:43;;;;;;;21.15;17.40;;;12.90;99.90;;;;;;5055072;28;20063;-68
2023/09/17 00:42:09;;;;;;;24.20;21.17;;;12.80;99.90;;;;;;5053632;28;20549;-68
2023/09/17 00:44:35;;;;;;;20.27;16.90;;;12.80;99.90;;;;;;5052895;28;20509;-68
2023/09/17 00:47:03;;;;;;;23.65;18.85;;;12.80;99.90;;;;;;5044324;28;20397;-68
2023/09/17 00:49:29;;;;;;;18.83;16.80;;;12.80;99.90;;;;;;5053326;28;20068;-69
2023/09/17 00:51:55;;;;;;;19.65;17.17;;;12.80;99.90;;;;;;5036626;28;20080;-68
2023/09/17 00:54:23;;;;;;;19.90;17.45;;;12.80;99.90;;;;;;5036585;28;20049;-68
2023/09/17 00:56:53;;;;;;;22.17;19.88;;;12.80;99.90;;;;;;5036842;28;20482;-68
2023/09/17 00:59:19;;;;;;;18.20;16.17;;;12.80;99.90;;;;;;5036059;28;20081;-68
2023/09/17 01:01:45;;;;;;;18.42;16.27;;;12.80;99.90;;;;;;5034957;28;20078;-68
2023/09/17 01:04:15;;;;;;;21.15;17.55;;;12.70;99.90;;;;;;5016765;28;20120;-68
2023/09/17 01:06:42;;;;;;;20.85;18.58;;;12.80;99.90;;;;;;5034273;28;20045;-68
2023/09/17 01:09:08;;;;;;;17.95;16.05;;;12.70;99.90;;;;;;5049890;28;20052;-68
2023/09/17 01:11:35;;;;;;;19.92;17.77;;;12.70;99.90;;;;;;5049270;28;20041;-68
2023/09/17 01:14:15;;;;;;;20.58;17.67;;;12.70;99.90;;;;;;4999613;28;20045;-68
2023/09/17 01:16:43;;;;;;;21.52;17.15;;;12.70;99.90;;;;;;5016189;28;20077;-68
2023/09/17 01:19:29;;;;;;;20.27;17.73;;;12.70;99.90;;;;;;5049421;28;20045;-68
2023/09/17 01:22:34;;;;;;;20.35;17.17;;;12.60;99.90;;;;;;5016626;28;20040;-68
2023/09/17 01:25:12;;;;;;;17.67;15.45;;;12.60;99.90;;;;;;5016964;28;20424;-68
2023/09/17 01:27:39;;;;;;;19.80;16.85;;;12.60;99.90;;;;;;5015771;28;20045;-68
2023/09/17 01:30:15;;;;;;;22.73;16.95;;;12.70;99.90;;;;;;5000322;28;20038;-68
2023/09/17 01:32:44;;;;;;;20.10;17.05;;;12.60;99.90;;;;;;5015970;28;20526;-68
2023/09/17 01:35:15;;;;;;;19.30;16.83;;;12.70;99.90;;;;;;5015421;28;20053;-68
2023/09/17 01:37:54;;;;;;;18.23;16.27;;;12.60;99.90;;;;;;5016439;28;20058;-69
2023/09/17 01:40:21;;;;;;;18.08;16.10;;;12.60;99.90;;;;;;4998958;28;20042;-68
2023/09/17 01:42:48;;;;;;;24.58;21.33;;;12.60;99.90;;;;;;5021747;28;20041;-68
2023/09/17 01:45:16;;;;;;;28.88;25.33;;;12.60;99.90;;;;;;5035524;28;20037;-68
2023/09/17 01:47:45;;;;;;;30.30;25.85;;;12.70;99.90;;;;;;5018468;28;20049;-68
2023/09/17 01:50:15;;;;;;;32.53;27.10;;;12.80;99.90;;;;;;5025912;28;20038;-68
2023/09/17 01:52:42;;;;;;;37.08;28.10;;;12.80;99.90;;;;;;5015899;28;20049;-68
2023/09/17 01:55:08;;;;;;;52.80;31.48;;;12.90;99.90;;;;;;5023058;28;20442;-68
2023/09/17 01:57:34;;;;;;;31.65;26.45;;;13.00;99.90;;;;;;5022631;28;20410;-69
2023/09/17 02:00:08;;;;;;;28.60;23.75;;;13.00;99.90;;;;;;5051143;28;20042;-69
2023/09/17 02:02:33;;;;;;;20.20;17.83;;;13.00;99.90;;;;;;5034555;28;20041;-69
2023/09/17 02:04:59;;;;;;;22.73;19.70;;;13.00;99.90;;;;;;5036043;28;20045;-68
2023/09/17 02:07:25;;;;;;;20.48;16.75;;;12.90;99.90;;;;;;5035614;28;20132;-69
2023/09/17 02:09:51;;;;;;;21.45;17.55;;;13.00;99.90;;;;;;5018154;28;20080;-68
2023/09/17 02:12:16;;;;;;;22.35;20.05;;;13.00;99.90;;;;;;5035334;28;20080;-68
2023/09/17 02:14:43;;;;;;;18.50;16.60;;;13.00;99.90;;;;;;5035242;28;20076;-69
2023/09/17 02:17:08;;;;;;;21.67;19.38;;;13.00;99.90;;;;;;5017913;28;20052;-68
2023/09/17 02:19:34;;;;;;;22.95;18.73;;;13.00;99.90;;;;;;5035175;28;20049;-69
2023/09/17 02:21:59;;;;;;;25.10;21.83;;;13.00;99.90;;;;;;5035243;28;20099;-69
2023/09/17 02:24:25;;;;;;;17.38;15.38;;;13.00;99.90;;;;;;5034334;28;20037;-68
2023/09/17 02:26:51;;;;;;;20.10;17.98;;;13.10;99.90;;;;;;5034976;28;20094;-68
2023/09/17 02:29:16;;;;;;;20.25;17.80;;;13.10;99.90;;;;;;5014620;28;20045;-68
2023/09/17 02:31:42;;;;;;;19.98;17.88;;;13.20;99.90;;;;;;5014365;28;20046;-68
2023/09/17 02:34:07;;;;;;;19.48;17.38;;;13.10;99.90;;;;;;5015126;28;20402;-68
2023/09/17 02:36:34;;;;;;;17.73;15.95;;;13.20;99.90;;;;;;4998408;28;20055;-68
2023/09/17 02:38:59;;;;;;;16.70;14.98;;;13.20;99.90;;;;;;5034686;28;20036;-72
2023/09/17 02:41:25;;;;;;;19.90;16.30;;;13.20;99.90;;;;;;5034401;28;20052;-72
2023/09/17 02:43:51;;;;;;;21.50;19.10;;;13.20;99.90;;;;;;5033959;28;20041;-72
2023/09/17 02:46:18;;;;;;;25.70;23.00;;;13.30;99.90;;;;;;5034704;28;20045;-72
2023/09/17 02:48:43;;;;;;;25.25;22.60;;;13.40;99.90;;;;;;5034813;28;20371;-72
2023/09/17 02:51:09;;;;;;;26.75;23.90;;;13.40;99.90;;;;;;5034193;28;20037;-72
2023/09/17 02:53:35;;;;;;;19.60;17.60;;;13.50;99.90;;;;;;5035003;28;20059;-72
2023/09/17 02:56:01;;;;;;;17.40;15.60;;;13.50;99.90;;;;;;5034707;28;20041;-72
2023/09/17 02:58:26;;;;;;;18.98;16.98;;;13.50;99.90;;;;;;5033598;28;20045;-72
2023/09/17 03:00:52;;;;;;;21.73;18.95;;;13.50;99.90;;;;;;5024316;28;20049;-72
2023/09/17 03:03:18;;;;;;;19.73;17.63;;;13.60;99.90;;;;;;5048990;28;20044;-72
2023/09/17 03:05:47;;;;;;;23.98;20.83;;;13.70;99.90;;;;;;5017492;28;20478;-72
2023/09/17 03:08:13;;;;;;;20.80;18.60;;;13.70;99.90;;;;;;5034410;28;20482;-72
2023/09/17 03:10:42;;;;;;;17.88;15.98;;;13.70;99.90;;;;;;5034340;28;20482;-72
2023/09/17 03:13:14;;;;;;;26.02;22.58;;;13.70;99.90;;;;;;5033513;28;20437;-72
2023/09/17 03:15:40;;;;;;;20.52;18.40;;;13.80;99.90;;;;;;5034485;28;20103;-72
2023/09/17 03:18:06;;;;;;;18.05;16.23;;;13.80;99.90;;;;;;5034197;28;20437;-72
2023/09/17 03:20:34;;;;;;;26.70;23.83;;;13.80;99.90;;;;;;5033573;28;20040;-72
2023/09/17 03:23:04;;;;;;;23.15;20.73;;;13.90;99.90;;;;;;5034284;28;20032;-72
2023/09/17 03:25:33;;;;;;;31.20;27.75;;;13.90;99.90;;;;;;5017416;28;20069;-72
2023/09/17 03:28:01;;;;;;;28.48;25.38;;;14.00;99.90;;;;;;5033820;28;20041;-73
2023/09/17 03:30:28;;;;;;;30.23;26.08;;;14.10;99.90;;;;;;5034169;28;20441;-72
2023/09/17 03:32:54;;;;;;;30.88;26.63;;;14.20;99.90;;;;;;5033835;28;20368;-72
2023/09/17 03:35:20;;;;;;;31.02;27.73;;;14.10;99.90;;;;;;5033952;28;20044;-72
2023/09/17 03:37:46;;;;;;;29.00;26.05;;;14.20;99.90;;;;;;5051886;28;20044;-72
2023/09/17 03:40:14;;;;;;;31.15;27.75;;;14.30;99.90;;;;;;5050344;28;20446;-72
2023/09/17 03:42:41;;;;;;;30.15;26.98;;;14.40;99.90;;;;;;5033735;28;20534;-72
2023/09/17 03:45:11;;;;;;;34.40;30.38;;;14.50;99.90;;;;;;5034000;28;20056;-72
2023/09/17 03:47:40;;;;;;;33.83;29.10;;;14.50;99.90;;;;;;5033250;28;20123;-71
2023/09/17 03:50:08;;;;;;;34.30;30.65;;;14.50;99.90;;;;;;5033935;28;20079;-73
2023/09/17 03:52:35;;;;;;;35.65;30.73;;;14.50;99.90;;;;;;5030542;28;20125;-73
2023/09/17 03:55:05;;;;;;;32.65;29.17;;;14.60;99.90;;;;;;5013596;28;20120;-73
2023/09/17 03:57:34;;;;;;;31.02;27.73;;;14.60;99.90;;;;;;5013862;28;20132;-73
2023/09/17 04:00:00;;;;;;;36.22;31.38;;;14.60;99.90;;;;;;5014321;28;20037;-73
2023/09/17 04:02:26;;;;;;;34.10;30.58;;;14.60;99.90;;;;;;5013411;28;20057;-72
2023/09/17 04:04:51;;;;;;;35.65;31.10;;;14.70;99.90;;;;;;5014256;28;20501;-72
2023/09/17 04:07:17;;;;;;;32.33;28.83;;;14.70;99.90;;;;;;5026535;28;20390;-72
2023/09/17 04:09:43;;;;;;;34.03;29.60;;;14.70;99.90;;;;;;5032641;28;20482;-72
2023/09/17 04:12:09;;;;;;;34.83;29.98;;;14.70;99.90;;;;;;5051628;28;20047;-72
2023/09/17 04:14:34;;;;;;;36.03;31.13;;;14.80;99.90;;;;;;5033594;28;20124;-72
2023/09/17 04:17:05;;;;;;;37.97;30.35;;;14.80;99.90;;;;;;5033217;28;20041;-72
2023/09/17 04:19:32;;;;;;;31.50;27.98;;;14.90;99.90;;;;;;5033438;28;20124;-72
2023/09/17 04:21:58;;;;;;;33.90;30.20;;;14.90;99.90;;;;;;5033698;28;20056;-72
2023/09/17 04:24:25;;;;;;;33.88;30.17;;;14.90;99.90;;;;;;5032436;28;20041;-72
2023/09/17 04:26:52;;;;;;;34.05;29.20;;;15.00;99.90;;;;;;5017131;28;20033;-73
2023/09/17 04:29:19;;;;;;;34.90;30.58;;;15.10;99.90;;;;;;5033199;28;20045;-73
2023/09/17 04:31:46;;;;;;;35.47;31.17;;;15.10;99.90;;;;;;5016896;28;20083;-72
2023/09/17 04:34:13;;;;;;;35.15;31.40;;;15.00;99.90;;;;;;5033541;28;20049;-73
2023/09/17 04:36:39;;;;;;;33.13;27.05;;;15.10;99.90;;;;;;5032773;28;20081;-72
2023/09/17 04:39:05;;;;;;;34.28;27.88;;;15.10;99.90;;;;;;5051415;28;20450;-72
2023/09/17 04:41:30;;;;;;;31.30;27.83;;;15.10;99.90;;;;;;5051099;28;20127;-73
2023/09/17 04:43:56;;;;;;;34.47;30.33;;;15.10;99.90;;;;;;5032917;28;20055;-72
2023/09/17 04:46:22;;;;;;;32.67;29.15;;;15.20;99.90;;;;;;5033612;28;20068;-72
2023/09/17 04:48:48;;;;;;;30.98;27.65;;;15.10;99.90;;;;;;5032816;28;20505;-73
2023/09/17 04:51:16;;;;;;;33.88;28.85;;;15.20;99.90;;;;;;5016676;28;20044;-72
2023/09/17 04:53:43;;;;;;;32.42;29.02;;;15.20;99.90;;;;;;5036496;28;20410;-72
2023/09/17 04:56:08;;;;;;;32.63;27.33;;;15.20;99.90;;;;;;5054978;28;20083;-70
2023/09/17 04:58:34;;;;;;;31.55;27.55;;;15.20;99.90;;;;;;5036232;28;20029;-70
2023/09/17 05:01:00;;;;;;;31.30;27.92;;;15.20;99.90;;;;;;5036709;28;20091;-70
2023/09/17 05:03:25;;;;;;;31.25;27.02;;;15.30;99.90;;;;;;5036556;28;20075;-70
2023/09/17 05:05:51;;;;;;;32.55;28.50;;;15.30;99.90;;;;;;5053729;28;20033;-70
2023/09/17 05:08:18;;;;;;;34.03;28.73;;;15.30;99.90;;;;;;5036757;28;20501;-70
2023/09/17 05:10:44;;;;;;;32.90;26.60;;;15.40;99.90;;;;;;5036473;28;20118;-70
2023/09/17 05:13:09;;;;;;;31.30;27.05;;;15.40;99.90;;;;;;5035875;28;20045;-72
2023/09/17 05:15:36;;;;;;;35.97;30.27;;;15.30;99.90;;;;;;5035978;28;20044;-72
2023/09/17 05:18:09;;;;;;;32.30;26.75;;;15.40;99.90;;;;;;5036607;28;20087;-72
2023/09/17 05:20:35;;;;;;;32.58;28.48;;;15.50;99.90;;;;;;5035613;28;20045;-72
2023/09/17 05:23:01;;;;;;;32.13;28.63;;;15.40;99.90;;;;;;5035813;28;20048;-72
2023/09/17 05:25:27;;;;;;;31.50;27.13;;;15.50;99.90;;;;;;5035381;28;20564;-72
2023/09/17 05:27:53;;;;;;;34.58;30.08;;;15.50;99.90;;;;;;5036365;28;20045;-72
2023/09/17 05:30:19;;;;;;;32.20;28.60;;;15.50;99.90;;;;;;5016608;28;20053;-72
2023/09/17 05:32:45;;;;;;;34.80;27.55;;;15.60;99.90;;;;;;5015594;28;20862;-72
2023/09/17 05:35:10;;;;;;;31.25;27.30;;;15.50;99.90;;;;;;5004333;28;20106;-73
2023/09/17 05:37:36;;;;;;;36.10;30.88;;;15.70;99.90;;;;;;5019436;28;20041;-71
2023/09/17 05:40:03;;;;;;;33.92;29.95;;;15.70;99.90;;;;;;5035589;28;20044;-71
2023/09/17 05:42:29;;;;;;;35.13;28.48;;;15.70;99.90;;;;;;5035351;28;20397;-71
2023/09/17 05:44:54;;;;;;;33.70;29.55;;;15.70;99.90;;;;;;5019954;28;20041;-70
2023/09/17 05:47:21;;;;;;;33.55;29.95;;;15.70;99.90;;;;;;5035362;28;20033;-71
2023/09/17 05:49:46;;;;;;;31.50;26.85;;;15.70;99.90;;;;;;5053345;28;20075;-70
2023/09/17 05:52:12;;;;;;;34.13;28.08;;;15.70;99.90;;;;;;5035814;28;20044;-70
2023/09/17 05:54:37;;;;;;;33.45;27.52;;;15.80;99.90;;;;;;5035090;28;20037;-70
2023/09/17 05:57:03;;;;;;;30.42;26.55;;;15.80;99.90;;;;;;5036087;28;20040;-71
2023/09/17 05:59:29;;;;;;;31.27;26.50;;;15.90;99.90;;;;;;5035407;28;20045;-73
2023/09/17 06:01:55;;;;;;;31.65;28.25;;;15.90;99.90;;;;;;5034766;28;20152;-72
2023/09/17 06:04:21;;;;;;;31.50;27.88;;;15.90;99.90;;;;;;5017927;28;20119;-72
2023/09/17 06:06:47;;;;;;;34.05;26.98;;;15.90;99.90;;;;;;5035974;28;20049;-73
2023/09/17 06:09:12;;;;;;;33.30;27.90;;;15.90;99.90;;;;;;5034352;28;20037;-73
2023/09/17 06:11:38;;;;;;;27.88;24.88;;;15.90;99.90;;;;;;5035795;28;20124;-72
2023/09/17 06:14:03;;;;;;;29.90;25.95;;;15.90;99.90;;;;;;5019053;28;20074;-72
2023/09/17 06:16:29;;;;;;;32.03;26.20;;;16.00;99.90;;;;;;5034521;28;20049;-73
2023/09/17 06:18:55;;;;;;;31.33;26.05;;;16.00;99.90;;;;;;5035403;28;20405;-71
2023/09/17 06:21:20;;;;;;;29.13;26.02;;;16.10;99.90;;;;;;5035120;28;20041;-71
2023/09/17 06:23:46;;;;;;;32.30;24.88;;;16.10;99.90;;;;;;5034538;28;20048;-71
2023/09/17 06:26:12;;;;;;;33.05;27.95;;;16.10;99.90;;;;;;5035466;28;20080;-71
2023/09/17 06:28:37;;;;;;;28.25;24.48;;;16.20;99.90;;;;;;5053002;28;20467;-71
2023/09/17 06:31:03;;;;;;;31.92;24.80;;;16.30;99.90;;;;;;5034665;28;20402;-71
2023/09/17 06:33:29;;;;;;;27.60;24.42;;;16.30;99.90;;;;;;5034499;28;20076;-71
2023/09/17 06:35:55;;;;;;;29.38;25.45;;;16.30;99.90;;;;;;5034421;28;20102;-70
2023/09/17 06:38:21;;;;;;;30.15;24.45;;;16.40;99.90;;;;;;5034613;28;20045;-71
2023/09/17 06:40:47;;;;;;;26.63;23.23;;;16.50;99.90;;;;;;5034959;28;20124;-70
2023/09/17 06:43:13;;;;;;;28.85;24.75;;;16.50;99.90;;;;;;5034128;28;20048;-71
2023/09/17 06:45:39;;;;;;;26.25;23.45;;;16.50;99.90;;;;;;5034679;28;20041;-71
2023/09/17 06:48:04;;;;;;;30.67;24.65;;;16.60;99.90;;;;;;5018710;28;20119;-71
2023/09/17 06:50:30;;;;;;;28.10;23.67;;;16.60;99.90;;;;;;5033530;28;20154;-70
2023/09/17 06:52:56;;;;;;;27.65;23.00;;;16.60;99.90;;;;;;5035073;28;20053;-70
2023/09/17 06:55:22;;;;;;;31.00;26.98;;;16.70;99.90;;;;;;5034834;28;20044;-71
2023/09/17 06:57:47;;;;;;;26.27;21.75;;;16.80;99.90;;;;;;5033793;28;20142;-73
2023/09/17 07:00:14;;;;;;;30.88;25.35;;;16.80;99.90;;;;;;5034883;28;20433;-70
2023/09/17 07:02:39;;;;;;;27.67;22.65;;;16.80;99.90;;;;;;5034220;28;20496;-70
2023/09/17 07:05:07;;;;;;;25.92;22.88;;;16.90;99.90;;;;;;5033620;28;20115;-71
2023/09/17 07:07:33;;;;;;;28.42;23.55;;;16.80;99.90;;;;;;5034289;28;20490;-70
2023/09/17 07:10:00;;;;;;;26.45;23.52;;;16.90;99.90;;;;;;5034824;28;20044;-71
2023/09/17 07:12:26;;;;;;;26.10;22.63;;;16.90;99.90;;;;;;5032923;28;20147;-70
2023/09/17 07:14:51;;;;;;;31.90;24.27;;;16.90;99.90;;;;;;5033722;28;20129;-70
2023/09/17 07:17:17;;;;;;;27.02;23.00;;;17.00;99.90;;;;;;5051815;28;20065;-71
2023/09/17 07:19:43;;;;;;;27.65;23.85;;;17.00;99.90;;;;;;5032999;28;20052;-70
2023/09/17 07:22:11;;;;;;;28.63;24.95;;;17.00;99.90;;;;;;5033073;28;20444;-70
2023/09/17 07:24:37;;;;;;;31.50;23.98;;;17.10;99.90;;;;;;5023827;28;20444;-70
2023/09/17 07:27:03;;;;;;;31.88;24.20;;;17.00;99.90;;;;;;5051641;28;20041;-70
2023/09/17 07:29:29;;;;;;;28.20;23.75;;;17.10;99.90;;;;;;5032790;28;20139;-67
2023/09/17 07:31:55;;;;;;;29.75;24.88;;;17.10;99.90;;;;;;5033670;28;20529;-70
2023/09/17 07:34:20;;;;;;;28.40;24.13;;;17.10;99.90;;;;;;5031712;28;20086;-70
2023/09/17 07:36:46;;;;;;;29.73;24.98;;;17.10;99.90;;;;;;5015586;28;20039;-70
2023/09/17 07:39:12;;;;;;;29.05;25.38;;;17.10;99.90;;;;;;5032785;28;20449;-70
2023/09/17 07:41:38;;;;;;;28.75;24.02;;;17.20;99.90;;;;;;5033809;28;20496;-70
2023/09/17 07:44:03;;;;;;;26.98;23.77;;;17.30;99.90;;;;;;5033863;28;20037;-71
2023/09/17 07:50:11;;;;;;;31.90;25.08;;;17.30;99.90;;;;;;5042001;28;20378;-70
2023/09/17 07:52:38;;;;;;;31.65;27.67;;;17.20;99.90;;;;;;5028423;28;20116;-72
2023/09/17 07:55:04;;;;;;;30.80;25.58;;;17.20;99.90;;;;;;5031537;28;20040;-70
2023/09/17 07:57:30;;;;;;;32.85;25.70;;;17.40;99.90;;;;;;5031427;28;20056;-73
2023/09/17 07:59:56;;;;;;;31.48;26.58;;;17.40;99.90;;;;;;5031778;28;20063;-70
2023/09/17 08:02:21;;;;;;;32.15;27.42;;;17.30;99.90;;;;;;5030929;28;20101;-70
2023/09/17 08:04:47;;;;;;;32.40;24.20;;;17.30;99.90;;;;;;5031497;28;20037;-70
2023/09/17 08:07:13;;;;;;;29.05;23.60;;;17.40;99.90;;;;;;5030281;28;20037;-67
2023/09/17 08:09:39;;;;;;;29.13;24.55;;;17.40;99.90;;;;;;5014788;28;20076;-66
2023/09/17 08:12:05;;;;;;;29.80;25.42;;;17.40;99.90;;;;;;5030886;28;20036;-67
2023/09/17 08:14:34;;;;;;;29.45;24.42;;;17.50;99.90;;;;;;5029994;28;20049;-66
2023/09/17 08:17:00;;;;;;;30.58;26.30;;;17.40;99.90;;;;;;5030522;28;20076;-67
2023/09/17 08:19:26;;;;;;;30.55;25.73;;;17.50;99.90;;;;;;5028669;28;20143;-66
2023/09/17 08:21:52;;;;;;;29.77;25.30;;;17.50;99.90;;;;;;5022686;28;20055;-67
2023/09/17 08:24:20;;;;;;;28.73;25.33;;;17.50;99.90;;;;;;5030908;28;20036;-66
2023/09/17 08:26:49;;;;;;;29.33;25.10;;;17.50;99.90;;;;;;5032324;28;20043;-67
2023/09/17 08:29:15;;;;;;;29.65;23.73;;;17.40;99.90;;;;;;5033004;28;20048;-66
2023/09/17 08:31:41;;;;;;;29.77;25.45;;;17.40;99.90;;;;;;5033334;28;20410;-66
2023/09/17 08:34:06;;;;;;;26.52;21.75;;;17.40;99.90;;;;;;4999018;28;20049;-66
2023/09/17 08:36:32;;;;;;;29.25;23.40;;;17.50;99.90;;;;;;5048945;28;20041;-66
2023/09/17 08:38:58;;;;;;;27.80;23.77;;;17.50;99.90;;;;;;5034949;28;20037;-66
2023/09/17 08:41:24;;;;;;;25.70;21.88;;;17.40;99.90;;;;;;5029770;28;20049;-66
2023/09/17 08:43:52;;;;;;;29.25;23.23;;;17.40;99.90;;;;;;5046464;28;20132;-66
2023/09/17 08:46:21;;;;;;;25.90;21.00;;;17.40;99.90;;;;;;5030888;28;20802;-66
2023/09/17 08:48:47;;;;;;;24.85;20.95;;;17.50;99.90;;;;;;5014240;28;20849;-66
2023/09/17 08:51:16;;;;;;;24.15;20.83;;;17.40;99.90;;;;;;5026304;28;20118;-66
2023/09/17 08:53:57;;;;;;;25.25;22.50;;;17.40;99.90;;;;;;5034129;28;20037;-66
2023/09/17 08:56:23;;;;;;;28.70;21.27;;;17.40;99.90;;;;;;5050955;28;20441;-66
2023/09/17 08:58:58;;;;;;;26.38;22.65;;;17.30;99.90;;;;;;5014584;28;20053;-66
2023/09/17 09:01:27;;;;;;;26.40;21.30;;;17.40;99.90;;;;;;5032711;28;20140;-66
2023/09/17 09:07:36;;;;;;;23.67;20.35;;;17.40;99.90;;;;;;5032123;28;20053;-67
2023/09/17 09:10:03;;;;;;;26.48;20.85;;;17.30;99.90;;;;;;5019895;28;20409;-67
2023/09/17 09:12:29;;;;;;;21.65;18.75;;;17.40;99.90;;;;;;5032955;28;20485;-67
2023/09/17 09:14:57;;;;;;;26.35;21.45;;;17.40;99.90;;;;;;5034080;28;20145;-67
2023/09/17 09:17:23;;;;;;;24.35;21.42;;;17.30;99.90;;;;;;5033858;28;20040;-67
2023/09/17 09:19:48;;;;;;;25.30;21.90;;;17.30;99.90;;;;;;5032284;28;20037;-67
2023/09/17 09:22:14;;;;;;;25.85;21.08;;;17.30;99.90;;;;;;5034010;28;20047;-67
2023/09/17 09:24:48;;;;;;;26.90;21.65;;;17.30;99.90;;;;;;5033100;28;20045;-67
2023/09/17 09:27:14;;;;;;;25.67;21.40;;;17.20;99.90;;;;;;5030768;28;20049;-67
2023/09/17 09:29:42;;;;;;;26.05;22.23;;;17.20;99.90;;;;;;5033697;28;20452;-67
2023/09/17 09:32:12;;;;;;;28.58;24.00;;;17.20;99.90;;;;;;5051051;28;20116;-68
2023/09/17 09:34:42;;;;;;;28.30;24.10;;;17.20;99.90;;;;;;5031579;28;20488;-68
2023/09/17 09:37:09;;;;;;;25.67;22.83;;;17.20;99.90;;;;;;5016733;28;20075;-68
2023/09/17 09:39:36;;;;;;;26.95;24.08;;;17.20;99.90;;;;;;5012887;28;20060;-68
2023/09/17 09:42:03;;;;;;;25.63;21.95;;;17.20;99.90;;;;;;5020994;28;20147;-68
2023/09/17 09:44:30;;;;;;;25.40;22.67;;;17.10;99.90;;;;;;5026658;28;20050;-68
2023/09/17 09:46:57;;;;;;;27.58;24.67;;;17.20;99.90;;;;;;5032537;28;20040;-68
2023/09/17 09:49:24;;;;;;;27.08;23.95;;;17.30;99.90;;;;;;5046321;28;20068;-68
2023/09/17 09:51:51;;;;;;;29.42;24.90;;;17.20;99.90;;;;;;5032722;28;20044;-68
2023/09/17 09:54:17;;;;;;;29.42;25.80;;;17.30;99.90;;;;;;5032388;28;20136;-68
2023/09/17 09:56:44;;;;;;;27.70;23.75;;;17.40;99.90;;;;;;5016396;28;20044;-67
2023/09/17 09:59:11;;;;;;;28.88;23.83;;;17.30;99.90;;;;;;5032881;28;20044;-68
2023/09/17 10:01:37;;;;;;;28.92;25.30;;;17.30;99.90;;;;;;5028869;28;20053;-68
2023/09/17 10:04:07;;;;;;;29.27;25.05;;;17.30;99.90;;;;;;5028100;28;20450;-69
2023/09/17 10:06:36;;;;;;;28.27;25.35;;;17.30;99.90;;;;;;5024451;28;20052;-70
2023/09/17 10:09:02;;;;;;;27.63;24.55;;;17.30;99.90;;;;;;4996728;28;20045;-69
2023/09/17 10:11:30;;;;;;;25.75;22.77;;;17.30;99.90;;;;;;5029408;28;20033;-69
2023/09/17 10:14:03;;;;;;;25.52;22.75;;;17.20;99.90;;;;;;5029061;28;20037;-69
2023/09/17 10:16:30;;;;;;;29.45;23.42;;;17.20;99.90;;;;;;5029552;28;20527;-69
2023/09/17 10:18:56;;;;;;;30.63;26.00;;;17.30;99.90;;;;;;5030345;28;20788;-69
2023/09/17 10:21:25;;;;;;;27.48;23.85;;;17.10;99.90;;;;;;5029202;28;20371;-69
2023/09/17 10:23:53;;;;;;;28.92;25.33;;;17.20;99.90;;;;;;5029344;28;20037;-69
2023/09/17 10:26:23;;;;;;;25.73;20.27;;;17.10;99.90;;;;;;5029156;28;20052;-68
2023/09/17 10:28:53;;;;;;;21.20;17.48;;;17.10;99.90;;;;;;5026221;28;20037;-69
2023/09/17 10:31:22;;;;;;;16.63;13.63;;;17.10;99.90;;;;;;5023076;28;20053;-69
2023/09/17 10:33:49;;;;;;;14.35;12.00;;;17.00;99.90;;;;;;5014953;28;20060;-69
2023/09/17 10:36:16;;;;;;;14.98;12.27;;;16.90;99.90;;;;;;5028376;28;20045;-69
2023/09/17 10:38:43;;;;;;;15.65;12.43;;;16.80;99.90;;;;;;5029925;28;20438;-68
2023/09/17 10:41:10;;;;;;;15.63;13.10;;;16.70;99.90;;;;;;5029014;28;20099;-68
2023/09/17 10:43:36;;;;;;;16.15;13.00;;;16.60;99.90;;;;;;5027980;28;20483;-68
2023/09/17 10:46:05;;;;;;;15.82;12.23;;;16.60;99.90;;;;;;5028802;28;20048;-68
2023/09/17 10:48:32;;;;;;;13.05;10.52;;;16.60;99.90;;;;;;5028563;28;20045;-69
2023/09/17 10:51:03;;;;;;;13.73;12.25;;;16.70;99.90;;;;;;5027512;28;20103;-69
2023/09/17 10:53:29;;;;;;;13.45;11.25;;;16.70;99.90;;;;;;5028346;28;20053;-69
2023/09/17 10:56:08;;;;;;;18.67;11.52;;;16.70;99.90;;;;;;5012110;28;20144;-69
2023/09/17 10:58:39;;;;;;;13.73;12.15;;;16.80;99.90;;;;;;5012578;28;20539;-69
2023/09/17 11:01:12;;;;;;;13.52;11.68;;;16.80;99.90;;;;;;5028954;28;20075;-69
2023/09/17 11:03:42;;;;;;;14.68;13.20;;;16.80;99.90;;;;;;5004601;28;20041;-69
2023/09/17 11:06:16;;;;;;;14.75;13.20;;;16.80;99.90;;;;;;5019765;28;20044;-69
2023/09/17 11:08:46;;;;;;;13.98;12.23;;;16.90;99.90;;;;;;5022900;28;20056;-69
2023/09/17 11:11:14;;;;;;;14.15;12.35;;;16.80;99.90;;;;;;4995078;28;20137;-69
2023/09/17 11:13:40;;;;;;;13.82;12.30;;;16.90;99.90;;;;;;5021889;28;20484;-69
2023/09/17 11:16:07;;;;;;;14.52;12.38;;;16.90;99.90;;;;;;5018471;28;20056;-68
2023/09/17 11:18:33;;;;;;;13.98;11.10;;;17.00;99.90;;;;;;5029429;28;20048;-68
2023/09/17 11:21:09;;;;;;;14.55;12.45;;;16.90;99.90;;;;;;5030884;28;20037;-68
2023/09/17 11:23:47;;;;;;;14.40;11.70;;;16.90;99.90;;;;;;5029982;28;20041;-68
2023/09/17 11:26:17;;;;;;;15.82;12.20;;;17.10;99.90;;;;;;5042743;28;20045;-69
2023/09/17 11:28:43;;;;;;;15.85;13.85;;;17.10;99.90;;;;;;5043636;28;20046;-69
2023/09/17 11:31:10;;;;;;;15.90;13.75;;;17.00;99.90;;;;;;5011300;28;20044;-69
2023/09/17 11:33:38;;;;;;;16.60;14.80;;;17.10;99.90;;;;;;4996027;28;20060;-70
2023/09/17 11:36:05;;;;;;;16.17;14.48;;;17.10;99.90;;;;;;5011734;28;20037;-69
2023/09/17 11:38:31;;;;;;;22.67;15.10;;;17.10;99.90;;;;;;5017289;28;20053;-69
2023/09/17 11:41:18;;;;;;;17.58;15.70;;;17.10;99.90;;;;;;5011675;28;20052;-69
2023/09/17 11:43:47;;;;;;;20.88;17.85;;;17.00;99.90;;;;;;5013972;28;20144;-68
2023/09/17 11:46:14;;;;;;;26.65;19.02;;;17.10;99.90;;;;;;5014403;28;20454;-68
2023/09/17 11:48:43;;;;;;;21.58;19.27;;;17.10;99.90;;;;;;5027705;28;20037;-69
2023/09/17 11:51:30;;;;;;;23.05;20.60;;;17.10;99.90;;;;;;5008037;28;20049;-69
2023/09/17 11:54:07;;;;;;;26.13;20.88;;;17.20;99.90;;;;;;5012328;28;20123;-69
2023/09/17 11:56:35;;;;;;;24.20;21.60;;;17.20;99.90;;;;;;5011668;28;20046;-69
2023/09/17 11:59:03;;;;;;;27.80;23.23;;;17.20;99.90;;;;;;5044417;28;20064;-69
2023/09/17 12:01:50;;;;;;;26.13;22.23;;;17.30;99.90;;;;;;5045724;28;20065;-68
2023/09/17 12:04:17;;;;;;;23.15;20.13;;;17.30;99.90;;;;;;5040316;28;20479;-68
2023/09/17 12:06:47;;;;;;;24.10;21.50;;;17.30;99.90;;;;;;5015040;28;20041;-68
2023/09/17 12:10:00;;;;;;;23.98;21.13;;;17.50;99.90;;;;;;5035061;28;20094;-68
2023/09/17 12:12:04;;;;;;;25.48;22.52;;;17.50;99.90;;;;;;5011894;28;20049;-68
2023/09/17 12:14:32;;;;;;;26.13;22.92;;;17.50;99.90;;;;;;5004445;28;20053;-68
2023/09/17 12:16:58;;;;;;;27.30;22.67;;;17.60;99.90;;;;;;5043035;28;20086;-68
2023/09/17 12:19:24;;;;;;;30.52;24.00;;;17.80;99.90;;;;;;5027453;28;20041;-68
2023/09/17 12:21:53;;;;;;;27.25;23.88;;;17.90;99.90;;;;;;5025005;28;20505;-68
2023/09/17 12:24:47;;;;;;;27.00;22.83;;;17.90;99.90;;;;;;5008369;28;20460;-68
2023/09/17 12:29:42;;;;;;;23.52;21.02;;;18.10;99.90;;;;;;5013710;28;20072;-68
2023/09/17 12:32:10;;;;;;;22.42;20.02;;;18.00;99.90;;;;;;5023539;28;20080;-67
2023/09/17 12:34:37;;;;;;;26.42;22.33;;;18.20;99.90;;;;;;5011425;28;20045;-68
2023/09/17 12:37:04;;;;;;;22.30;19.80;;;18.10;99.90;;;;;;5030373;28;20045;-68
2023/09/17 12:39:30;;;;;;;21.17;18.23;;;18.10;99.90;;;;;;5024504;28;20120;-68